sensor_id;sensor_type;location;lat;lon;timestamp;P1;durP1;ratioP1;P2;durP2;ratioP2
64871;SDS011;51351;51.450;6.614;2023-08-06T00:00:24;8.25;;;4.63;;
64871;SDS011;51351;51.450;6.614;2023-08-06T00:02:50;4.35;;;2.83;;
64871;SDS011;51351;51.450;6.614;2023-08-06T00:05:16;5.07;;;3.40;;
64871;SDS011;51351;51.450;6.614;2023-08-06T00:07:47;4.28;;;3.53;;
64871;SDS011;51351;51.450;6.614;2023-08-06T00:10:14;4.68;;;3.83;;
64871;SDS011;51351;51.450;6.614;2023-08-06T00:12:40;4.47;;;3.88;;
64871;SDS011;51351;51.450;6.614;2023-08-06T00:15:06;6.28;;;4.25;;
64871;SDS011;51351;51.450;6.614;2023-08-06T00:17:33;7.05;;;3.83;;
64871;SDS011;51351;51.450;6.614;2023-08-06T00:20:00;6.70;;;3.58;;
64871;SDS011;51351;51.450;6.614;2023-08-06T00:22:36;7.05;;;3.63;;
64871;SDS011;51351;51.450;6.614;2023-08-06T00:25:03;5.45;;;3.65;;
64871;SDS011;51351;51.450;6.614;2023-08-06T00:27:30;10.23;;;3.90;;
64871;SDS011;51351;51.450;6.614;2023-08-06T00:29:58;5.07;;;3.75;;
64871;SDS011;51351;51.450;6.614;2023-08-06T00:32:24;7.55;;;4.35;;
64871;SDS011;51351;51.450;6.614;2023-08-06T00:34:50;5.50;;;4.40;;
64871;SDS011;51351;51.450;6.614;2023-08-06T00:37:16;9.30;;;4.68;;
64871;SDS011;51351;51.450;6.614;2023-08-06T00:39:43;6.15;;;3.90;;
64871;SDS011;51351;51.450;6.614;2023-08-06T00:42:10;9.27;;;4.25;;
64871;SDS011;51351;51.450;6.614;2023-08-06T00:44:37;9.85;;;4.22;;
64871;SDS011;51351;51.450;6.614;2023-08-06T00:47:03;8.52;;;4.78;;
64871;SDS011;51351;51.450;6.614;2023-08-06T00:49:30;5.22;;;3.75;;
64871;SDS011;51351;51.450;6.614;2023-08-06T00:51:57;5.82;;;3.35;;
64871;SDS011;51351;51.450;6.614;2023-08-06T00:54:24;5.53;;;3.30;;
64871;SDS011;51351;51.450;6.614;2023-08-06T00:56:52;6.15;;;2.90;;
64871;SDS011;51351;51.450;6.614;2023-08-06T00:59:19;3.78;;;3.30;;
64871;SDS011;51351;51.450;6.614;2023-08-06T01:01:45;4.80;;;3.05;;
64871;SDS011;51351;51.450;6.614;2023-08-06T01:04:11;4.07;;;3.38;;
64871;SDS011;51351;51.450;6.614;2023-08-06T01:17:37;4.45;;;3.00;;
64871;SDS011;51351;51.450;6.614;2023-08-06T01:20:04;5.72;;;3.40;;
64871;SDS011;51351;51.450;6.614;2023-08-06T01:22:31;7.30;;;3.75;;
64871;SDS011;51351;51.450;6.614;2023-08-06T01:24:57;5.80;;;2.90;;
64871;SDS011;51351;51.450;6.614;2023-08-06T01:27:28;3.53;;;2.53;;
64871;SDS011;51351;51.450;6.614;2023-08-06T01:30:03;3.58;;;2.75;;
64871;SDS011;51351;51.450;6.614;2023-08-06T01:32:38;5.68;;;2.70;;
64871;SDS011;51351;51.450;6.614;2023-08-06T01:35:08;5.78;;;3.10;;
64871;SDS011;51351;51.450;6.614;2023-08-06T01:37:37;4.38;;;3.55;;
64871;SDS011;51351;51.450;6.614;2023-08-06T01:40:10;3.80;;;2.70;;
64871;SDS011;51351;51.450;6.614;2023-08-06T01:42:37;4.32;;;2.55;;
64871;SDS011;51351;51.450;6.614;2023-08-06T01:45:05;5.28;;;3.25;;
64871;SDS011;51351;51.450;6.614;2023-08-06T01:47:32;7.80;;;2.95;;
64871;SDS011;51351;51.450;6.614;2023-08-06T01:49:58;5.57;;;3.30;;
64871;SDS011;51351;51.450;6.614;2023-08-06T01:52:24;4.45;;;2.38;;
64871;SDS011;51351;51.450;6.614;2023-08-06T01:54:50;5.35;;;4.10;;
64871;SDS011;51351;51.450;6.614;2023-08-06T01:57:16;4.72;;;3.08;;
64871;SDS011;51351;51.450;6.614;2023-08-06T01:59:43;3.45;;;2.67;;
64871;SDS011;51351;51.450;6.614;2023-08-06T02:02:09;3.53;;;2.58;;
64871;SDS011;51351;51.450;6.614;2023-08-06T02:04:35;4.53;;;2.83;;
64871;SDS011;51351;51.450;6.614;2023-08-06T02:07:01;4.05;;;2.40;;
64871;SDS011;51351;51.450;6.614;2023-08-06T02:09:28;6.93;;;2.67;;
64871;SDS011;51351;51.450;6.614;2023-08-06T02:11:54;4.30;;;2.22;;
64871;SDS011;51351;51.450;6.614;2023-08-06T02:14:20;4.60;;;2.45;;
64871;SDS011;51351;51.450;6.614;2023-08-06T02:16:46;4.18;;;3.50;;
64871;SDS011;51351;51.450;6.614;2023-08-06T02:19:12;4.60;;;3.22;;
64871;SDS011;51351;51.450;6.614;2023-08-06T02:21:38;3.08;;;2.70;;
64871;SDS011;51351;51.450;6.614;2023-08-06T02:24:04;4.75;;;2.70;;
64871;SDS011;51351;51.450;6.614;2023-08-06T02:26:30;4.38;;;2.85;;
64871;SDS011;51351;51.450;6.614;2023-08-06T02:28:56;3.90;;;2.83;;
64871;SDS011;51351;51.450;6.614;2023-08-06T02:31:22;4.40;;;3.33;;
64871;SDS011;51351;51.450;6.614;2023-08-06T02:33:48;4.05;;;3.00;;
64871;SDS011;51351;51.450;6.614;2023-08-06T02:36:14;5.90;;;3.10;;
64871;SDS011;51351;51.450;6.614;2023-08-06T02:38:40;4.50;;;3.33;;
64871;SDS011;51351;51.450;6.614;2023-08-06T02:41:06;5.05;;;3.50;;
64871;SDS011;51351;51.450;6.614;2023-08-06T02:43:32;4.90;;;2.90;;
64871;SDS011;51351;51.450;6.614;2023-08-06T02:45:59;4.40;;;2.97;;
64871;SDS011;51351;51.450;6.614;2023-08-06T02:48:27;3.72;;;2.92;;
64871;SDS011;51351;51.450;6.614;2023-08-06T02:50:56;5.50;;;3.08;;
64871;SDS011;51351;51.450;6.614;2023-08-06T02:53:25;3.28;;;2.72;;
64871;SDS011;51351;51.450;6.614;2023-08-06T02:55:51;4.47;;;2.97;;
64871;SDS011;51351;51.450;6.614;2023-08-06T02:58:22;4.63;;;3.60;;
64871;SDS011;51351;51.450;6.614;2023-08-06T03:01:04;3.72;;;2.80;;
64871;SDS011;51351;51.450;6.614;2023-08-06T03:03:39;3.50;;;2.50;;
64871;SDS011;51351;51.450;6.614;2023-08-06T03:06:06;5.90;;;3.33;;
64871;SDS011;51351;51.450;6.614;2023-08-06T03:08:46;4.13;;;3.00;;
64871;SDS011;51351;51.450;6.614;2023-08-06T03:11:12;6.57;;;2.83;;
64871;SDS011;51351;51.450;6.614;2023-08-06T03:13:39;6.13;;;3.45;;
64871;SDS011;51351;51.450;6.614;2023-08-06T03:16:05;4.88;;;3.72;;
64871;SDS011;51351;51.450;6.614;2023-08-06T03:18:31;5.07;;;3.38;;
64871;SDS011;51351;51.450;6.614;2023-08-06T03:21:02;5.15;;;3.45;;
64871;SDS011;51351;51.450;6.614;2023-08-06T03:23:30;6.97;;;3.50;;
64871;SDS011;51351;51.450;6.614;2023-08-06T03:25:56;4.90;;;3.20;;
64871;SDS011;51351;51.450;6.614;2023-08-06T03:28:28;4.90;;;3.28;;
64871;SDS011;51351;51.450;6.614;2023-08-06T03:31:01;6.05;;;3.63;;
64871;SDS011;51351;51.450;6.614;2023-08-06T03:33:32;7.95;;;3.60;;
64871;SDS011;51351;51.450;6.614;2023-08-06T03:35:59;5.90;;;3.28;;
64871;SDS011;51351;51.450;6.614;2023-08-06T03:38:25;6.13;;;3.90;;
64871;SDS011;51351;51.450;6.614;2023-08-06T03:40:53;5.05;;;3.40;;
64871;SDS011;51351;51.450;6.614;2023-08-06T03:43:19;4.40;;;2.88;;
64871;SDS011;51351;51.450;6.614;2023-08-06T03:48:11;4.95;;;3.45;;
64871;SDS011;51351;51.450;6.614;2023-08-06T03:50:38;4.20;;;3.38;;
64871;SDS011;51351;51.450;6.614;2023-08-06T03:53:04;5.60;;;3.45;;
64871;SDS011;51351;51.450;6.614;2023-08-06T03:55:30;5.38;;;3.30;;
64871;SDS011;51351;51.450;6.614;2023-08-06T03:57:56;4.00;;;2.88;;
64871;SDS011;51351;51.450;6.614;2023-08-06T04:00:23;5.72;;;3.45;;
64871;SDS011;51351;51.450;6.614;2023-08-06T04:02:52;4.85;;;2.75;;
64871;SDS011;51351;51.450;6.614;2023-08-06T04:05:18;5.78;;;3.17;;
64871;SDS011;51351;51.450;6.614;2023-08-06T04:07:44;8.75;;;3.42;;
64871;SDS011;51351;51.450;6.614;2023-08-06T04:10:10;3.20;;;2.80;;
64871;SDS011;51351;51.450;6.614;2023-08-06T04:12:36;4.82;;;3.08;;
64871;SDS011;51351;51.450;6.614;2023-08-06T04:15:05;4.28;;;2.80;;
64871;SDS011;51351;51.450;6.614;2023-08-06T04:17:31;6.47;;;3.55;;
64871;SDS011;51351;51.450;6.614;2023-08-06T04:19:57;4.28;;;3.00;;
64871;SDS011;51351;51.450;6.614;2023-08-06T04:22:24;4.20;;;3.38;;
64871;SDS011;51351;51.450;6.614;2023-08-06T04:24:50;4.57;;;2.95;;
64871;SDS011;51351;51.450;6.614;2023-08-06T04:27:17;4.65;;;3.22;;
64871;SDS011;51351;51.450;6.614;2023-08-06T04:29:47;4.72;;;3.95;;
64871;SDS011;51351;51.450;6.614;2023-08-06T04:34:44;5.30;;;2.83;;
64871;SDS011;51351;51.450;6.614;2023-08-06T04:37:10;3.90;;;3.30;;
64871;SDS011;51351;51.450;6.614;2023-08-06T04:39:37;8.00;;;2.80;;
64871;SDS011;51351;51.450;6.614;2023-08-06T04:42:03;6.30;;;2.92;;
64871;SDS011;51351;51.450;6.614;2023-08-06T04:46:55;5.40;;;3.05;;
64871;SDS011;51351;51.450;6.614;2023-08-06T04:49:21;6.28;;;3.83;;
64871;SDS011;51351;51.450;6.614;2023-08-06T04:51:47;3.67;;;3.08;;
64871;SDS011;51351;51.450;6.614;2023-08-06T04:54:13;4.80;;;2.90;;
64871;SDS011;51351;51.450;6.614;2023-08-06T04:56:40;4.18;;;3.00;;
64871;SDS011;51351;51.450;6.614;2023-08-06T04:59:06;5.35;;;2.60;;
64871;SDS011;51351;51.450;6.614;2023-08-06T05:01:32;3.70;;;3.10;;
64871;SDS011;51351;51.450;6.614;2023-08-06T05:03:58;4.93;;;2.35;;
64871;SDS011;51351;51.450;6.614;2023-08-06T05:06:24;3.28;;;2.05;;
64871;SDS011;51351;51.450;6.614;2023-08-06T05:08:50;5.20;;;2.72;;
64871;SDS011;51351;51.450;6.614;2023-08-06T05:11:16;4.28;;;3.05;;
64871;SDS011;51351;51.450;6.614;2023-08-06T05:13:42;5.05;;;2.30;;
64871;SDS011;51351;51.450;6.614;2023-08-06T05:16:08;4.80;;;2.58;;
64871;SDS011;51351;51.450;6.614;2023-08-06T05:18:34;4.05;;;2.58;;
64871;SDS011;51351;51.450;6.614;2023-08-06T05:21:00;4.90;;;2.25;;
64871;SDS011;51351;51.450;6.614;2023-08-06T05:23:26;2.83;;;2.15;;
64871;SDS011;51351;51.450;6.614;2023-08-06T05:25:52;5.07;;;2.13;;
64871;SDS011;51351;51.450;6.614;2023-08-06T05:28:18;3.70;;;2.22;;
64871;SDS011;51351;51.450;6.614;2023-08-06T05:30:44;6.65;;;3.00;;
64871;SDS011;51351;51.450;6.614;2023-08-06T05:33:10;5.53;;;2.83;;
64871;SDS011;51351;51.450;6.614;2023-08-06T05:35:36;3.65;;;2.92;;
64871;SDS011;51351;51.450;6.614;2023-08-06T05:38:02;3.25;;;2.60;;
64871;SDS011;51351;51.450;6.614;2023-08-06T05:40:28;4.20;;;2.20;;
64871;SDS011;51351;51.450;6.614;2023-08-06T05:42:54;4.63;;;2.63;;
64871;SDS011;51351;51.450;6.614;2023-08-06T05:45:20;4.00;;;2.40;;
64871;SDS011;51351;51.450;6.614;2023-08-06T05:47:50;3.67;;;2.58;;
64871;SDS011;51351;51.450;6.614;2023-08-06T05:50:16;3.53;;;2.47;;
64871;SDS011;51351;51.450;6.614;2023-08-06T05:52:42;3.08;;;2.38;;
64871;SDS011;51351;51.450;6.614;2023-08-06T05:55:08;3.88;;;2.35;;
64871;SDS011;51351;51.450;6.614;2023-08-06T05:57:34;2.88;;;2.58;;
64871;SDS011;51351;51.450;6.614;2023-08-06T06:00:01;4.13;;;2.63;;
64871;SDS011;51351;51.450;6.614;2023-08-06T06:02:27;6.65;;;2.60;;
64871;SDS011;51351;51.450;6.614;2023-08-06T06:04:53;7.78;;;2.78;;
64871;SDS011;51351;51.450;6.614;2023-08-06T06:07:19;3.92;;;2.58;;
64871;SDS011;51351;51.450;6.614;2023-08-06T06:09:45;6.43;;;2.65;;
64871;SDS011;51351;51.450;6.614;2023-08-06T06:12:11;5.47;;;2.60;;
64871;SDS011;51351;51.450;6.614;2023-08-06T06:14:37;5.82;;;2.95;;
64871;SDS011;51351;51.450;6.614;2023-08-06T06:17:03;5.70;;;2.70;;
64871;SDS011;51351;51.450;6.614;2023-08-06T06:19:29;4.68;;;2.75;;
64871;SDS011;51351;51.450;6.614;2023-08-06T06:21:55;3.60;;;2.72;;
64871;SDS011;51351;51.450;6.614;2023-08-06T06:24:23;4.90;;;2.45;;
64871;SDS011;51351;51.450;6.614;2023-08-06T06:26:49;5.50;;;2.75;;
64871;SDS011;51351;51.450;6.614;2023-08-06T06:29:15;4.82;;;2.78;;
64871;SDS011;51351;51.450;6.614;2023-08-06T06:31:41;4.55;;;2.15;;
64871;SDS011;51351;51.450;6.614;2023-08-06T06:34:07;4.47;;;2.47;;
64871;SDS011;51351;51.450;6.614;2023-08-06T06:36:33;3.95;;;2.88;;
64871;SDS011;51351;51.450;6.614;2023-08-06T06:38:59;3.83;;;2.25;;
64871;SDS011;51351;51.450;6.614;2023-08-06T06:41:25;5.07;;;3.08;;
64871;SDS011;51351;51.450;6.614;2023-08-06T06:43:52;4.00;;;3.25;;
64871;SDS011;51351;51.450;6.614;2023-08-06T06:46:18;4.00;;;3.00;;
64871;SDS011;51351;51.450;6.614;2023-08-06T06:48:44;4.50;;;3.05;;
64871;SDS011;51351;51.450;6.614;2023-08-06T06:51:10;4.65;;;2.78;;
64871;SDS011;51351;51.450;6.614;2023-08-06T06:53:36;5.15;;;2.75;;
64871;SDS011;51351;51.450;6.614;2023-08-06T06:56:03;4.13;;;2.67;;
64871;SDS011;51351;51.450;6.614;2023-08-06T06:58:32;5.40;;;3.35;;
64871;SDS011;51351;51.450;6.614;2023-08-06T07:00:59;5.07;;;3.65;;
64871;SDS011;51351;51.450;6.614;2023-08-06T07:05:51;5.45;;;2.78;;
64871;SDS011;51351;51.450;6.614;2023-08-06T07:08:17;4.15;;;3.38;;
64871;SDS011;51351;51.450;6.614;2023-08-06T07:10:43;4.72;;;3.08;;
64871;SDS011;51351;51.450;6.614;2023-08-06T07:13:09;5.55;;;3.22;;
64871;SDS011;51351;51.450;6.614;2023-08-06T07:15:35;4.40;;;2.97;;
64871;SDS011;51351;51.450;6.614;2023-08-06T07:18:01;4.35;;;3.38;;
64871;SDS011;51351;51.450;6.614;2023-08-06T07:20:27;6.07;;;2.88;;
64871;SDS011;51351;51.450;6.614;2023-08-06T07:22:57;3.97;;;3.17;;
64871;SDS011;51351;51.450;6.614;2023-08-06T07:25:24;4.68;;;3.30;;
64871;SDS011;51351;51.450;6.614;2023-08-06T07:27:50;7.13;;;3.30;;
64871;SDS011;51351;51.450;6.614;2023-08-06T07:30:16;2.97;;;2.63;;
64871;SDS011;51351;51.450;6.614;2023-08-06T07:32:43;3.80;;;2.65;;
64871;SDS011;51351;51.450;6.614;2023-08-06T07:35:09;3.92;;;2.22;;
64871;SDS011;51351;51.450;6.614;2023-08-06T07:37:38;3.40;;;2.67;;
64871;SDS011;51351;51.450;6.614;2023-08-06T07:40:04;3.63;;;2.60;;
64871;SDS011;51351;51.450;6.614;2023-08-06T07:42:31;2.75;;;2.20;;
64871;SDS011;51351;51.450;6.614;2023-08-06T07:44:57;3.15;;;2.10;;
64871;SDS011;51351;51.450;6.614;2023-08-06T07:47:24;4.90;;;2.10;;
64871;SDS011;51351;51.450;6.614;2023-08-06T07:49:50;4.68;;;3.63;;
64871;SDS011;51351;51.450;6.614;2023-08-06T07:52:16;4.95;;;1.98;;
64871;SDS011;51351;51.450;6.614;2023-08-06T07:54:42;2.00;;;1.70;;
64871;SDS011;51351;51.450;6.614;2023-08-06T07:57:08;5.28;;;2.20;;
64871;SDS011;51351;51.450;6.614;2023-08-06T07:59:34;6.28;;;2.75;;
64871;SDS011;51351;51.450;6.614;2023-08-06T08:02:00;2.80;;;1.90;;
64871;SDS011;51351;51.450;6.614;2023-08-06T08:06:52;3.30;;;1.83;;
64871;SDS011;51351;51.450;6.614;2023-08-06T08:09:18;2.20;;;1.83;;
64871;SDS011;51351;51.450;6.614;2023-08-06T08:11:45;3.00;;;1.83;;
64871;SDS011;51351;51.450;6.614;2023-08-06T08:14:12;3.78;;;1.80;;
64871;SDS011;51351;51.450;6.614;2023-08-06T08:16:38;2.80;;;1.48;;
64871;SDS011;51351;51.450;6.614;2023-08-06T08:19:04;3.78;;;1.65;;
64871;SDS011;51351;51.450;6.614;2023-08-06T08:21:30;2.00;;;1.60;;
64871;SDS011;51351;51.450;6.614;2023-08-06T08:23:56;2.75;;;1.77;;
64871;SDS011;51351;51.450;6.614;2023-08-06T08:26:24;3.30;;;1.50;;
64871;SDS011;51351;51.450;6.614;2023-08-06T08:28:50;2.58;;;1.77;;
64871;SDS011;51351;51.450;6.614;2023-08-06T08:31:16;3.20;;;1.73;;
64871;SDS011;51351;51.450;6.614;2023-08-06T08:33:42;4.50;;;1.48;;
64871;SDS011;51351;51.450;6.614;2023-08-06T08:36:08;3.15;;;1.80;;
64871;SDS011;51351;51.450;6.614;2023-08-06T08:38:35;4.45;;;2.08;;
64871;SDS011;51351;51.450;6.614;2023-08-06T08:41:01;3.17;;;1.60;;
64871;SDS011;51351;51.450;6.614;2023-08-06T08:43:27;4.35;;;1.42;;
64871;SDS011;51351;51.450;6.614;2023-08-06T08:45:55;2.17;;;1.13;;
64871;SDS011;51351;51.450;6.614;2023-08-06T08:48:25;2.83;;;1.30;;
64871;SDS011;51351;51.450;6.614;2023-08-06T08:50:53;2.60;;;1.10;;
64871;SDS011;51351;51.450;6.614;2023-08-06T08:53:19;3.30;;;1.08;;
64871;SDS011;51351;51.450;6.614;2023-08-06T08:55:48;3.20;;;1.33;;
64871;SDS011;51351;51.450;6.614;2023-08-06T08:58:15;1.98;;;1.25;;
64871;SDS011;51351;51.450;6.614;2023-08-06T09:00:41;2.22;;;1.42;;
64871;SDS011;51351;51.450;6.614;2023-08-06T09:03:08;5.20;;;1.50;;
64871;SDS011;51351;51.450;6.614;2023-08-06T09:05:35;2.75;;;1.20;;
64871;SDS011;51351;51.450;6.614;2023-08-06T09:08:04;2.25;;;1.42;;
64871;SDS011;51351;51.450;6.614;2023-08-06T09:10:31;4.22;;;1.33;;
64871;SDS011;51351;51.450;6.614;2023-08-06T09:12:57;1.95;;;1.27;;
64871;SDS011;51351;51.450;6.614;2023-08-06T09:15:24;4.10;;;1.60;;
64871;SDS011;51351;51.450;6.614;2023-08-06T09:17:54;2.45;;;1.13;;
64871;SDS011;51351;51.450;6.614;2023-08-06T09:20:20;3.75;;;1.30;;
64871;SDS011;51351;51.450;6.614;2023-08-06T09:22:47;2.13;;;1.10;;
64871;SDS011;51351;51.450;6.614;2023-08-06T09:25:21;2.90;;;1.60;;
64871;SDS011;51351;51.450;6.614;2023-08-06T09:27:50;3.45;;;1.20;;
64871;SDS011;51351;51.450;6.614;2023-08-06T09:30:33;3.33;;;1.83;;
64871;SDS011;51351;51.450;6.614;2023-08-06T09:33:00;4.80;;;2.22;;
64871;SDS011;51351;51.450;6.614;2023-08-06T09:35:29;4.57;;;2.65;;
64871;SDS011;51351;51.450;6.614;2023-08-06T09:38:09;3.95;;;2.92;;
64871;SDS011;51351;51.450;6.614;2023-08-06T09:40:36;5.70;;;2.80;;
64871;SDS011;51351;51.450;6.614;2023-08-06T09:43:02;3.42;;;2.72;;
64871;SDS011;51351;51.450;6.614;2023-08-06T09:45:32;5.65;;;4.07;;
64871;SDS011;51351;51.450;6.614;2023-08-06T09:48:06;8.45;;;5.38;;
64871;SDS011;51351;51.450;6.614;2023-08-06T09:50:35;6.63;;;3.28;;
64871;SDS011;51351;51.450;6.614;2023-08-06T09:53:05;4.63;;;3.70;;
64871;SDS011;51351;51.450;6.614;2023-08-06T09:55:34;5.70;;;4.07;;
64871;SDS011;51351;51.450;6.614;2023-08-06T10:00:26;5.38;;;4.88;;
64871;SDS011;51351;51.450;6.614;2023-08-06T10:02:54;7.40;;;5.25;;
64871;SDS011;51351;51.450;6.614;2023-08-06T10:05:25;6.28;;;4.75;;
64871;SDS011;51351;51.450;6.614;2023-08-06T10:07:52;5.30;;;4.65;;
64871;SDS011;51351;51.450;6.614;2023-08-06T10:10:19;6.43;;;5.68;;
64871;SDS011;51351;51.450;6.614;2023-08-06T10:12:51;5.45;;;4.63;;
64871;SDS011;51351;51.450;6.614;2023-08-06T10:15:24;7.03;;;4.38;;
64871;SDS011;51351;51.450;6.614;2023-08-06T10:17:52;3.78;;;2.60;;
64871;SDS011;51351;51.450;6.614;2023-08-06T10:20:21;2.97;;;2.22;;
64871;SDS011;51351;51.450;6.614;2023-08-06T10:23:04;2.80;;;1.98;;
64871;SDS011;51351;51.450;6.614;2023-08-06T10:28:06;3.20;;;2.22;;
64871;SDS011;51351;51.450;6.614;2023-08-06T10:30:43;1.95;;;1.45;;
64871;SDS011;51351;51.450;6.614;2023-08-06T10:33:10;2.60;;;1.40;;
64871;SDS011;51351;51.450;6.614;2023-08-06T10:38:19;1.52;;;0.88;;
64871;SDS011;51351;51.450;6.614;2023-08-06T10:43:26;1.98;;;1.13;;
64871;SDS011;51351;51.450;6.614;2023-08-06T10:45:55;1.10;;;1.00;;
64871;SDS011;51351;51.450;6.614;2023-08-06T10:48:31;1.30;;;1.10;;
64871;SDS011;51351;51.450;6.614;2023-08-06T10:51:11;1.00;;;0.85;;
64871;SDS011;51351;51.450;6.614;2023-08-06T10:53:42;1.15;;;1.05;;
64871;SDS011;51351;51.450;6.614;2023-08-06T10:56:14;1.70;;;1.00;;
64871;SDS011;51351;51.450;6.614;2023-08-06T10:58:41;1.83;;;1.17;;
64871;SDS011;51351;51.450;6.614;2023-08-06T11:01:08;1.25;;;1.15;;
64871;SDS011;51351;51.450;6.614;2023-08-06T11:03:35;1.92;;;1.25;;
64871;SDS011;51351;51.450;6.614;2023-08-06T11:06:03;1.50;;;1.10;;
64871;SDS011;51351;51.450;6.614;2023-08-06T11:11:08;2.42;;;1.65;;
64871;SDS011;51351;51.450;6.614;2023-08-06T11:13:39;2.10;;;1.08;;
64871;SDS011;51351;51.450;6.614;2023-08-06T11:16:08;1.35;;;1.20;;
64871;SDS011;51351;51.450;6.614;2023-08-06T11:18:35;2.13;;;1.38;;
64871;SDS011;51351;51.450;6.614;2023-08-06T11:21:01;1.98;;;1.60;;
64871;SDS011;51351;51.450;6.614;2023-08-06T11:25:57;1.50;;;0.93;;
64871;SDS011;51351;51.450;6.614;2023-08-06T11:28:24;2.95;;;1.33;;
64871;SDS011;51351;51.450;6.614;2023-08-06T11:30:51;2.10;;;1.65;;
64871;SDS011;51351;51.450;6.614;2023-08-06T11:33:21;1.13;;;1.00;;
64871;SDS011;51351;51.450;6.614;2023-08-06T11:35:48;2.72;;;1.10;;
64871;SDS011;51351;51.450;6.614;2023-08-06T11:38:15;1.27;;;1.10;;
64871;SDS011;51351;51.450;6.614;2023-08-06T11:40:43;2.90;;;1.15;;
64871;SDS011;51351;51.450;6.614;2023-08-06T11:43:17;1.20;;;1.10;;
64871;SDS011;51351;51.450;6.614;2023-08-06T11:45:44;0.88;;;0.70;;
64871;SDS011;51351;51.450;6.614;2023-08-06T11:48:10;0.80;;;0.70;;
64871;SDS011;51351;51.450;6.614;2023-08-06T11:50:37;1.77;;;1.08;;
64871;SDS011;51351;51.450;6.614;2023-08-06T11:53:06;0.63;;;0.60;;
64871;SDS011;51351;51.450;6.614;2023-08-06T11:55:32;1.50;;;1.10;;
64871;SDS011;51351;51.450;6.614;2023-08-06T12:00:28;1.70;;;0.90;;
64871;SDS011;51351;51.450;6.614;2023-08-06T12:02:54;1.00;;;0.90;;
64871;SDS011;51351;51.450;6.614;2023-08-06T12:05:22;1.40;;;1.30;;
64871;SDS011;51351;51.450;6.614;2023-08-06T12:07:51;0.85;;;0.75;;
64871;SDS011;51351;51.450;6.614;2023-08-06T12:10:19;1.10;;;0.88;;
64871;SDS011;51351;51.450;6.614;2023-08-06T12:12:46;1.80;;;1.00;;
64871;SDS011;51351;51.450;6.614;2023-08-06T12:15:12;1.98;;;1.20;;
64871;SDS011;51351;51.450;6.614;2023-08-06T12:17:38;1.45;;;1.00;;
64871;SDS011;51351;51.450;6.614;2023-08-06T12:20:05;2.72;;;1.35;;
64871;SDS011;51351;51.450;6.614;2023-08-06T12:22:32;3.35;;;2.13;;
64871;SDS011;51351;51.450;6.614;2023-08-06T12:25:03;1.92;;;1.40;;
64871;SDS011;51351;51.450;6.614;2023-08-06T12:27:33;1.85;;;1.40;;
64871;SDS011;51351;51.450;6.614;2023-08-06T12:30:00;2.08;;;1.75;;
64871;SDS011;51351;51.450;6.614;2023-08-06T12:34:52;3.45;;;2.47;;
64871;SDS011;51351;51.450;6.614;2023-08-06T12:37:18;2.47;;;2.17;;
64871;SDS011;51351;51.450;6.614;2023-08-06T12:39:44;3.10;;;2.00;;
64871;SDS011;51351;51.450;6.614;2023-08-06T12:42:10;3.40;;;2.10;;
64871;SDS011;51351;51.450;6.614;2023-08-06T12:44:36;4.35;;;2.28;;
64871;SDS011;51351;51.450;6.614;2023-08-06T12:47:02;3.40;;;2.78;;
64871;SDS011;51351;51.450;6.614;2023-08-06T12:49:28;3.30;;;2.33;;
64871;SDS011;51351;51.450;6.614;2023-08-06T12:54:22;3.80;;;2.28;;
64871;SDS011;51351;51.450;6.614;2023-08-06T12:56:48;3.20;;;2.65;;
64871;SDS011;51351;51.450;6.614;2023-08-06T13:01:42;5.28;;;2.90;;
64871;SDS011;51351;51.450;6.614;2023-08-06T13:04:08;5.30;;;2.65;;
64871;SDS011;51351;51.450;6.614;2023-08-06T13:06:35;3.60;;;2.63;;
64871;SDS011;51351;51.450;6.614;2023-08-06T13:09:02;3.08;;;2.05;;
64871;SDS011;51351;51.450;6.614;2023-08-06T13:11:30;3.92;;;2.80;;
64871;SDS011;51351;51.450;6.614;2023-08-06T13:14:03;4.13;;;2.75;;
64871;SDS011;51351;51.450;6.614;2023-08-06T13:16:31;3.78;;;2.28;;
64871;SDS011;51351;51.450;6.614;2023-08-06T13:18:57;3.50;;;2.63;;
64871;SDS011;51351;51.450;6.614;2023-08-06T13:21:23;3.40;;;2.47;;
64871;SDS011;51351;51.450;6.614;2023-08-06T13:23:49;5.15;;;2.20;;
64871;SDS011;51351;51.450;6.614;2023-08-06T13:26:15;2.85;;;2.13;;
64871;SDS011;51351;51.450;6.614;2023-08-06T13:28:43;3.35;;;2.63;;
64871;SDS011;51351;51.450;6.614;2023-08-06T13:31:10;2.58;;;1.83;;
64871;SDS011;51351;51.450;6.614;2023-08-06T13:33:36;4.70;;;2.83;;
64871;SDS011;51351;51.450;6.614;2023-08-06T13:36:02;3.80;;;2.65;;
64871;SDS011;51351;51.450;6.614;2023-08-06T13:38:28;3.55;;;2.30;;
64871;SDS011;51351;51.450;6.614;2023-08-06T13:40:54;3.63;;;2.17;;
64871;SDS011;51351;51.450;6.614;2023-08-06T13:43:20;6.78;;;2.25;;
64871;SDS011;51351;51.450;6.614;2023-08-06T13:45:46;3.50;;;2.47;;
64871;SDS011;51351;51.450;6.614;2023-08-06T13:48:12;4.15;;;1.83;;
64871;SDS011;51351;51.450;6.614;2023-08-06T13:50:38;3.55;;;1.92;;
64871;SDS011;51351;51.450;6.614;2023-08-06T13:53:04;4.95;;;2.38;;
64871;SDS011;51351;51.450;6.614;2023-08-06T13:55:30;2.83;;;2.30;;
64871;SDS011;51351;51.450;6.614;2023-08-06T13:57:56;3.13;;;2.22;;
64871;SDS011;51351;51.450;6.614;2023-08-06T14:00:22;3.50;;;2.90;;
64871;SDS011;51351;51.450;6.614;2023-08-06T14:02:48;7.68;;;2.60;;
64871;SDS011;51351;51.450;6.614;2023-08-06T14:05:14;2.83;;;2.53;;
64871;SDS011;51351;51.450;6.614;2023-08-06T14:07:40;4.82;;;2.05;;
64871;SDS011;51351;51.450;6.614;2023-08-06T14:10:06;3.80;;;1.95;;
64871;SDS011;51351;51.450;6.614;2023-08-06T14:12:34;4.75;;;2.90;;
64871;SDS011;51351;51.450;6.614;2023-08-06T14:15:01;2.90;;;2.03;;
64871;SDS011;51351;51.450;6.614;2023-08-06T14:17:29;3.13;;;1.70;;
64871;SDS011;51351;51.450;6.614;2023-08-06T14:22:21;4.05;;;1.80;;
64871;SDS011;51351;51.450;6.614;2023-08-06T14:24:48;2.50;;;1.45;;
64871;SDS011;51351;51.450;6.614;2023-08-06T14:27:14;2.72;;;1.77;;
64871;SDS011;51351;51.450;6.614;2023-08-06T14:29:40;2.95;;;2.25;;
64871;SDS011;51351;51.450;6.614;2023-08-06T14:32:06;3.10;;;1.83;;
64871;SDS011;51351;51.450;6.614;2023-08-06T14:34:32;2.70;;;1.70;;
64871;SDS011;51351;51.450;6.614;2023-08-06T14:36:58;3.28;;;1.65;;
64871;SDS011;51351;51.450;6.614;2023-08-06T14:39:25;2.47;;;1.60;;
64871;SDS011;51351;51.450;6.614;2023-08-06T14:41:51;4.13;;;2.03;;
64871;SDS011;51351;51.450;6.614;2023-08-06T14:44:17;3.28;;;1.80;;
64871;SDS011;51351;51.450;6.614;2023-08-06T14:46:43;2.15;;;1.50;;
64871;SDS011;51351;51.450;6.614;2023-08-06T14:49:09;6.38;;;2.10;;
64871;SDS011;51351;51.450;6.614;2023-08-06T14:51:35;1.45;;;1.30;;
64871;SDS011;51351;51.450;6.614;2023-08-06T14:54:01;3.85;;;3.55;;
64871;SDS011;51351;51.450;6.614;2023-08-06T14:56:27;2.25;;;1.73;;
64871;SDS011;51351;51.450;6.614;2023-08-06T14:58:53;2.88;;;1.67;;
64871;SDS011;51351;51.450;6.614;2023-08-06T15:01:19;4.53;;;2.15;;
64871;SDS011;51351;51.450;6.614;2023-08-06T15:03:45;3.67;;;1.58;;
64871;SDS011;51351;51.450;6.614;2023-08-06T15:06:11;4.10;;;1.73;;
64871;SDS011;51351;51.450;6.614;2023-08-06T15:08:37;3.03;;;2.10;;
64871;SDS011;51351;51.450;6.614;2023-08-06T15:11:03;2.38;;;1.95;;
64871;SDS011;51351;51.450;6.614;2023-08-06T15:13:29;4.55;;;1.83;;
64871;SDS011;51351;51.450;6.614;2023-08-06T15:15:55;3.80;;;2.10;;
64871;SDS011;51351;51.450;6.614;2023-08-06T15:18:21;2.58;;;1.27;;
64871;SDS011;51351;51.450;6.614;2023-08-06T15:20:47;2.45;;;1.35;;
64871;SDS011;51351;51.450;6.614;2023-08-06T15:23:14;2.03;;;1.40;;
64871;SDS011;51351;51.450;6.614;2023-08-06T15:25:40;2.67;;;1.42;;
64871;SDS011;51351;51.450;6.614;2023-08-06T15:28:06;3.15;;;1.70;;
64871;SDS011;51351;51.450;6.614;2023-08-06T15:30:32;2.63;;;1.42;;
64871;SDS011;51351;51.450;6.614;2023-08-06T15:32:58;2.03;;;1.35;;
64871;SDS011;51351;51.450;6.614;2023-08-06T15:35:24;2.50;;;1.15;;
64871;SDS011;51351;51.450;6.614;2023-08-06T15:37:51;4.88;;;1.70;;